Time,TemperatureF,DewpointF,PressureIn,WindDirection,WindDirectionDegrees,WindSpeedMPH,WindSpeedGustMPH,Humidity,HourlyPrecipIn,Conditions,Clouds,dailyrainin,SoftwareType,DateUTC
2013-08-24 00:01:00,59.5,50.5,29.86,WSW,247,0.0,0.0,72,0.00,,,0.00,WUHU21623XXSP,2013-08-24 07:01:00,
2013-08-24 00:06:00,59.4,50.8,29.86,WSW,247,0.0,0.0,73,0.00,,,0.00,WUHU21623XXSP,2013-08-24 07:06:00,
2013-08-24 00:11:00,58.8,50.6,29.86,WSW,247,0.0,0.0,74,0.00,,,0.00,WUHU21623XXSP,2013-08-24 07:11:00,
2013-08-24 00:16:00,58.8,50.6,29.86,WSW,247,0.0,0.0,74,0.00,,,0.00,WUHU21623XXSP,2013-08-24 07:16:00,
2013-08-24 00:21:00,58.8,50.6,29.86,WSW,247,0.0,0.0,74,0.00,,,0.00,WUHU21623XXSP,2013-08-24 07:21:00,
2013-08-24 00:26:00,58.8,50.6,29.86,WSW,247,0.0,0.0,74,0.00,,,0.00,WUHU21623XXSP,2013-08-24 07:26:00,
2013-08-24 00:31:00,58.8,51.3,29.86,WSW,247,0.0,0.0,76,0.00,,,0.00,WUHU21623XXSP,2013-08-24 07:31:00,
2013-08-24 00:36:00,59.0,51.1,29.86,WSW,247,0.0,0.0,75,0.00,,,0.00,WUHU21623XXSP,2013-08-24 07:36:00,
2013-08-24 00:41:00,58.8,50.9,29.86,WSW,247,0.0,0.0,75,0.00,,,0.00,WUHU21623XXSP,2013-08-24 07:41:00,
2013-08-24 00:46:00,58.6,50.7,29.86,WSW,247,0.0,0.0,75,0.00,,,0.00,WUHU21623XXSP,2013-08-24 07:46:00,
2013-08-24 00:51:00,57.9,50.4,29.87,WSW,247,0.0,0.0,76,0.00,,,0.00,WUHU21623XXSP,2013-08-24 07:51:00,
2013-08-24 00:56:00,57.6,50.1,29.87,WSW,247,0.0,0.0,76,0.00,,,0.00,WUHU21623XXSP,2013-08-24 07:56:00,
2013-08-24 01:01:00,57.4,49.9,29.87,WSW,247,0.0,0.0,76,0.00,,,0.00,WUHU21623XXSP,2013-08-24 08:01:00,
2013-08-24 01:06:00,57.4,49.9,29.87,WSW,247,0.0,0.0,76,0.00,,,0.00,WUHU21623XXSP,2013-08-24 08:06:00,
2013-08-24 01:11:00,57.0,50.2,29.86,WSW,247,0.0,0.0,78,0.00,,,0.00,WUHU21623XXSP,2013-08-24 08:11:00,
2013-08-24 01:16:00,56.8,50.0,29.86,WSW,247,0.0,0.0,78,0.00,,,0.00,WUHU21623XXSP,2013-08-24 08:16:00,
2013-08-24 01:21:00,56.8,50.0,29.86,WSW,247,0.0,0.0,78,0.00,,,0.00,WUHU21623XXSP,2013-08-24 08:21:00,
2013-08-24 01:26:00,56.5,50.4,29.87,WSW,247,0.0,0.0,80,0.00,,,0.00,WUHU21623XXSP,2013-08-24 08:26:00,
2013-08-24 01:31:00,56.1,50.3,29.87,WSW,247,0.0,0.0,81,0.00,,,0.00,WUHU21623XXSP,2013-08-24 08:31:00,
2013-08-24 01:36:00,55.8,50.0,29.87,WSW,247,0.0,0.0,81,0.00,,,0.00,WUHU21623XXSP,2013-08-24 08:36:00,
2013-08-24 01:41:00,55.9,50.1,29.87,WSW,247,0.0,0.0,81,0.00,,,0.00,WUHU21623XXSP,2013-08-24 08:41:00,
2013-08-24 01:46:00,55.8,50.0,29.87,WSW,247,0.0,0.0,81,0.00,,,0.00,WUHU21623XXSP,2013-08-24 08:46:00,
2013-08-24 01:51:00,55.6,49.8,29.87,WSW,247,0.0,0.0,81,0.00,,,0.00,WUHU21623XXSP,2013-08-24 08:51:00,
2013-08-24 01:56:00,55.2,49.8,29.88,WSW,247,0.0,0.0,82,0.00,,,0.00,WUHU21623XXSP,2013-08-24 08:56:00,
2013-08-24 02:01:00,55.2,49.8,29.88,WSW,247,0.0,0.0,82,0.00,,,0.00,WUHU21623XXSP,2013-08-24 09:01:00,
2013-08-24 02:06:00,55.0,49.9,29.87,SW,225,1.8,1.8,83,0.00,,,0.00,WUHU21623XXSP,2013-08-24 09:06:00,
2013-08-24 02:11:00,55.4,50.3,29.87,SW,225,2.5,3.8,83,0.00,,,0.00,WUHU21623XXSP,2013-08-24 09:11:00,
2013-08-24 02:16:00,56.1,51.0,29.87,SW,225,1.1,4.0,83,0.00,,,0.00,WUHU21623XXSP,2013-08-24 09:16:00,
2013-08-24 02:21:00,56.3,50.8,29.88,SW,225,1.3,4.0,82,0.00,,,0.00,WUHU21623XXSP,2013-08-24 09:21:00,
2013-08-24 02:26:00,56.3,50.5,29.88,SW,225,0.0,1.3,81,0.00,,,0.00,WUHU21623XXSP,2013-08-24 09:26:00,
2013-08-24 02:31:00,56.3,50.5,29.88,SW,225,0.0,0.0,81,0.00,,,0.00,WUHU21623XXSP,2013-08-24 09:31:00,
2013-08-24 02:36:00,55.9,50.1,29.88,SW,225,0.0,0.0,81,0.00,,,0.00,WUHU21623XXSP,2013-08-24 09:36:00,
2013-08-24 02:41:00,55.2,49.8,29.88,SW,225,0.0,2.9,82,0.00,,,0.00,WUHU21623XXSP,2013-08-24 09:41:00,
2013-08-24 02:46:00,55.2,49.8,29.88,SW,225,0.0,2.9,82,0.00,,,0.00,WUHU21623XXSP,2013-08-24 09:46:00,
2013-08-24 02:51:00,55.2,49.8,29.88,SW,225,0.0,0.0,82,0.00,,,0.00,WUHU21623XXSP,2013-08-24 09:51:00,
2013-08-24 02:56:00,55.2,49.8,29.88,SW,225,0.0,0.0,82,0.00,,,0.00,WUHU21623XXSP,2013-08-24 09:56:00,
2013-08-24 03:01:00,55.0,49.6,29.88,SW,225,0.0,0.0,82,0.00,,,0.00,WUHU21623XXSP,2013-08-24 10:01:00,
2013-08-24 03:06:00,54.5,49.1,29.88,SW,225,0.0,0.0,82,0.00,,,0.00,WUHU21623XXSP,2013-08-24 10:06:00,
2013-08-24 03:11:00,54.3,48.9,29.88,SW,225,0.0,0.0,82,0.00,,,0.00,WUHU21623XXSP,2013-08-24 10:11:00,
2013-08-24 03:16:00,54.5,49.1,29.88,SW,225,0.0,0.0,82,0.00,,,0.00,WUHU21623XXSP,2013-08-24 10:16:00,
2013-08-24 03:21:00,54.3,49.2,29.88,SW,225,0.0,0.0,83,0.00,,,0.00,WUHU21623XXSP,2013-08-24 10:21:00,
2013-08-24 03:26:00,54.0,49.2,29.88,SW,225,0.0,0.0,84,0.00,,,0.00,WUHU21623XXSP,2013-08-24 10:26:00,
2013-08-24 03:31:00,53.8,49.0,29.88,SW,225,0.0,0.0,84,0.00,,,0.00,WUHU21623XXSP,2013-08-24 10:31:00,
2013-08-24 03:36:00,53.6,48.8,29.88,SW,225,0.0,0.0,84,0.00,,,0.00,WUHU21623XXSP,2013-08-24 10:36:00,
2013-08-24 03:41:00,53.2,48.4,29.88,SW,225,0.0,0.0,84,0.00,,,0.00,WUHU21623XXSP,2013-08-24 10:41:00,
2013-08-24 03:46:00,52.5,48.1,29.89,SW,225,0.0,0.0,85,0.00,,,0.00,WUHU21623XXSP,2013-08-24 10:46:00,
2013-08-24 03:51:00,52.2,47.8,29.88,SW,225,0.0,0.0,85,0.00,,,0.00,WUHU21623XXSP,2013-08-24 10:51:00,
2013-08-24 03:56:00,51.8,48.0,29.88,SW,225,0.0,0.0,87,0.00,,,0.00,WUHU21623XXSP,2013-08-24 10:56:00,
2013-08-24 04:01:00,51.6,47.5,29.89,SW,225,0.0,0.0,86,0.00,,,0.00,WUHU21623XXSP,2013-08-24 11:01:00,
2013-08-24 04:06:00,51.6,47.5,29.88,SW,225,0.0,0.0,86,0.00,,,0.00,WUHU21623XXSP,2013-08-24 11:06:00,
2013-08-24 04:11:00,51.8,47.7,29.88,SW,225,0.0,0.0,86,0.00,,,0.00,WUHU21623XXSP,2013-08-24 11:11:00,
2013-08-24 04:16:00,52.0,47.9,29.88,SW,225,0.0,0.0,86,0.00,,,0.00,WUHU21623XXSP,2013-08-24 11:16:00,
2013-08-24 04:21:00,52.0,48.2,29.89,SW,225,0.0,0.0,87,0.00,,,0.00,WUHU21623XXSP,2013-08-24 11:21:00,
2013-08-24 04:26:00,51.6,48.4,29.89,SW,225,0.0,0.0,89,0.00,,,0.00,WUHU21623XXSP,2013-08-24 11:26:00,
2013-08-24 04:31:00,51.6,48.1,29.89,SW,225,0.0,0.0,88,0.00,,,0.00,WUHU21623XXSP,2013-08-24 11:31:00,
2013-08-24 04:36:00,51.6,48.1,29.89,SW,225,0.0,0.0,88,0.00,,,0.00,WUHU21623XXSP,2013-08-24 11:36:00,
2013-08-24 04:41:00,51.6,48.1,29.89,SW,225,0.0,0.0,88,0.00,,,0.00,WUHU21623XXSP,2013-08-24 11:41:00,
2013-08-24 04:46:00,51.6,48.1,29.89,SW,225,0.0,0.0,88,0.00,,,0.00,WUHU21623XXSP,2013-08-24 11:46:00,
2013-08-24 04:51:00,51.6,48.1,29.89,SW,225,0.0,0.0,88,0.00,,,0.00,WUHU21623XXSP,2013-08-24 11:51:00,
2013-08-24 04:56:00,52.0,48.5,29.89,SW,225,0.0,0.0,88,0.00,,,0.00,WUHU21623XXSP,2013-08-24 11:56:00,
2013-08-24 05:01:00,52.2,48.7,29.89,SW,225,0.0,0.0,88,0.00,,,0.00,WUHU21623XXSP,2013-08-24 12:01:00,
2013-08-24 05:06:00,52.2,48.7,29.89,SW,225,0.0,0.0,88,0.00,,,0.00,WUHU21623XXSP,2013-08-24 12:06:00,
2013-08-24 05:11:00,52.0,48.5,29.89,SW,225,0.0,0.0,88,0.00,,,0.00,WUHU21623XXSP,2013-08-24 12:11:00,
2013-08-24 05:16:00,51.8,48.6,29.89,SW,225,0.0,0.0,89,0.00,,,0.00,WUHU21623XXSP,2013-08-24 12:16:00,
2013-08-24 05:21:00,51.6,48.4,29.89,SW,225,0.0,0.0,89,0.00,,,0.00,WUHU21623XXSP,2013-08-24 12:21:00,
2013-08-24 05:25:00,51.6,48.4,29.89,SW,225,0.0,0.0,89,0.00,,,0.00,WUHU21623XXSP,2013-08-24 12:25:00,
2013-08-24 05:30:00,51.4,48.5,29.89,SW,225,0.0,0.0,90,0.00,,,0.00,WUHU21623XXSP,2013-08-24 12:30:00,
2013-08-24 05:35:00,51.4,48.5,29.89,SW,225,0.0,0.0,90,0.00,,,0.00,WUHU21623XXSP,2013-08-24 12:35:00,
2013-08-24 05:40:00,51.3,48.4,29.89,SW,225,0.0,0.0,90,0.00,,,0.00,WUHU21623XXSP,2013-08-24 12:40:00,
2013-08-24 05:45:00,51.1,48.2,29.89,SW,225,0.0,0.0,90,0.00,,,0.00,WUHU21623XXSP,2013-08-24 12:45:00,
2013-08-24 05:50:00,50.9,48.0,29.89,SW,225,0.0,0.0,90,0.00,,,0.00,WUHU21623XXSP,2013-08-24 12:50:00,
2013-08-24 05:55:00,50.7,47.8,29.89,SW,225,0.0,0.0,90,0.00,,,0.00,WUHU21623XXSP,2013-08-24 12:55:00,
2013-08-24 06:00:00,50.7,47.8,29.89,SW,225,0.0,0.0,90,0.00,,,0.00,WUHU21623XXSP,2013-08-24 13:00:00,
2013-08-24 06:05:00,50.4,47.2,29.89,SW,225,0.0,0.0,89,0.00,,,0.00,WUHU21623XXSP,2013-08-24 13:05:00,
2013-08-24 06:10:00,50.4,47.5,29.89,SW,225,0.0,0.0,90,0.00,,,0.00,WUHU21623XXSP,2013-08-24 13:10:00,
2013-08-24 06:15:00,50.4,47.8,29.89,SW,225,0.0,0.0,91,0.00,,,0.00,WUHU21623XXSP,2013-08-24 13:15:00,
2013-08-24 06:20:00,50.7,48.1,29.90,SW,225,0.0,0.0,91,0.00,,,0.00,WUHU21623XXSP,2013-08-24 13:20:00,
2013-08-24 06:25:00,51.4,49.1,29.90,SW,225,0.0,0.0,92,0.00,,,0.00,WUHU21623XXSP,2013-08-24 13:25:00,
2013-08-24 06:30:00,53.2,50.5,29.90,SW,225,0.0,0.0,91,0.00,,,0.00,WUHU21623XXSP,2013-08-24 13:30:00,
2013-08-24 06:35:00,54.9,51.9,29.90,SW,225,0.0,0.0,90,0.00,,,0.00,WUHU21623XXSP,2013-08-24 13:35:00,
2013-08-24 06:36:00,55.8,52.5,29.90,SW,225,0.0,0.0,89,0.00,,,0.00,WUHU21623XXSP,2013-08-24 13:36:00,
2013-08-24 06:40:00,56.5,52.9,29.90,SW,225,0.0,0.0,88,0.00,,,0.00,WUHU21623XXSP,2013-08-24 13:40:00,
2013-08-24 06:45:00,58.1,53.6,29.90,SW,225,0.0,0.0,85,0.00,,,0.00,WUHU21623XXSP,2013-08-24 13:45:00,
2013-08-24 06:50:00,59.2,54.0,29.90,SW,225,0.0,0.0,83,0.00,,,0.00,WUHU21623XXSP,2013-08-24 13:50:00,
2013-08-24 06:55:00,60.6,55.0,29.91,SW,225,0.0,0.0,82,0.00,,,0.00,WUHU21623XXSP,2013-08-24 13:55:00,
2013-08-24 07:00:00,63.5,57.2,29.90,SW,225,0.0,0.0,80,0.00,,,0.00,WUHU21623XXSP,2013-08-24 14:00:00,
2013-08-24 07:05:00,65.3,57.9,29.90,SW,225,0.0,0.0,77,0.00,,,0.00,WUHU21623XXSP,2013-08-24 14:05:00,
2013-08-24 07:10:00,66.9,58.0,29.91,SW,225,0.0,0.0,73,0.00,,,0.00,WUHU21623XXSP,2013-08-24 14:10:00,
2013-08-24 07:15:00,68.5,58.4,29.91,SW,225,0.0,0.0,70,0.00,,,0.00,WUHU21623XXSP,2013-08-24 14:15:00,
2013-08-24 07:20:00,69.4,58.9,29.91,SW,225,0.0,0.0,69,0.00,,,0.00,WUHU21623XXSP,2013-08-24 14:20:00,
2013-08-24 07:25:00,70.0,59.1,29.91,SW,225,0.0,0.0,68,0.00,,,0.00,WUHU21623XXSP,2013-08-24 14:25:00,
2013-08-24 07:30:00,69.4,56.8,29.91,SSW,202,0.0,0.0,64,0.00,,,0.00,WUHU21623XXSP,2013-08-24 14:30:00,
2013-08-24 07:35:00,68.4,55.8,29.91,SSW,202,0.0,0.0,64,0.00,,,0.00,WUHU21623XXSP,2013-08-24 14:35:00,
2013-08-24 07:40:00,67.6,55.5,29.92,SSW,202,2.7,2.7,65,0.00,,,0.00,WUHU21623XXSP,2013-08-24 14:40:00,
2013-08-24 07:45:00,67.3,55.2,29.92,South,180,0.0,2.9,65,0.00,,,0.00,WUHU21623XXSP,2013-08-24 14:45:00,
2013-08-24 07:50:00,66.9,54.0,29.92,South,180,6.9,6.9,63,0.00,,,0.00,WUHU21623XXSP,2013-08-24 14:50:00,
2013-08-24 07:55:00,66.9,54.4,29.91,SSE,157,0.0,6.9,64,0.00,,,0.00,WUHU21623XXSP,2013-08-24 14:55:00,
2013-08-24 08:00:00,67.6,54.6,29.91,SSE,157,2.9,4.9,63,0.00,,,0.00,WUHU21623XXSP,2013-08-24 15:00:00,
2013-08-24 08:05:00,67.8,54.8,29.91,SSE,157,0.0,4.9,63,0.00,,,0.00,WUHU21623XXSP,2013-08-24 15:05:00,
2013-08-24 08:10:00,67.8,54.4,29.91,SSE,157,0.0,0.0,62,0.00,,,0.00,WUHU21623XXSP,2013-08-24 15:10:00,
2013-08-24 08:15:00,66.9,54.0,29.92,SSE,157,0.0,0.0,63,0.00,,,0.00,WUHU21623XXSP,2013-08-24 15:15:00,
2013-08-24 08:20:00,66.4,53.5,29.92,SSE,157,0.0,0.0,63,0.00,,,0.00,WUHU21623XXSP,2013-08-24 15:20:00,
2013-08-24 08:25:00,65.8,53.4,29.91,SSE,157,0.0,0.0,64,0.00,,,0.00,WUHU21623XXSP,2013-08-24 15:25:00,
2013-08-24 08:30:00,68.9,55.9,29.91,SSE,157,0.0,0.0,63,0.00,,,0.00,WUHU21623XXSP,2013-08-24 15:30:00,
2013-08-24 08:35:00,69.6,55.6,29.91,SSE,157,0.0,0.0,61,0.00,,,0.00,WUHU21623XXSP,2013-08-24 15:35:00,
2013-08-24 08:40:00,68.7,54.3,29.91,SE,135,0.0,0.0,60,0.00,,,0.00,WUHU21623XXSP,2013-08-24 15:40:00,
2013-08-24 08:45:00,66.6,53.3,29.91,SE,135,0.0,0.0,62,0.00,,,0.00,WUHU21623XXSP,2013-08-24 15:45:00,
2013-08-24 08:50:00,65.5,52.7,29.91,SE,135,0.0,3.8,63,0.00,,,0.00,WUHU21623XXSP,2013-08-24 15:50:00,
2013-08-24 08:55:00,65.5,53.1,29.91,SE,135,0.0,3.8,64,0.00,,,0.00,WUHU21623XXSP,2013-08-24 15:55:00,
2013-08-24 09:00:00,65.5,53.1,29.91,SE,135,0.0,0.0,64,0.00,,,0.00,WUHU21623XXSP,2013-08-24 16:00:00,
2013-08-24 09:05:00,65.3,52.9,29.91,SE,135,0.0,0.0,64,0.00,,,0.00,WUHU21623XXSP,2013-08-24 16:05:00,
2013-08-24 09:10:00,65.7,53.3,29.91,SE,135,0.0,0.0,64,0.00,,,0.00,WUHU21623XXSP,2013-08-24 16:10:00,
2013-08-24 09:15:00,67.3,54.4,29.92,SE,135,0.0,0.0,63,0.00,,,0.00,WUHU21623XXSP,2013-08-24 16:15:00,
2013-08-24 09:20:00,67.8,54.4,29.92,South,180,2.2,2.2,62,0.00,,,0.00,WUHU21623XXSP,2013-08-24 16:20:00,
2013-08-24 09:25:00,67.3,53.5,29.92,South,180,1.6,2.2,61,0.00,,,0.00,WUHU21623XXSP,2013-08-24 16:25:00,
2013-08-24 09:30:00,66.2,53.7,29.92,South,180,5.8,5.8,64,0.00,,,0.00,WUHU21623XXSP,2013-08-24 16:30:00,
2013-08-24 09:35:00,66.0,54.0,29.92,SSE,157,2.9,5.8,65,0.00,,,0.00,WUHU21623XXSP,2013-08-24 16:35:00,
2013-08-24 09:40:00,67.3,54.4,29.92,SSE,157,0.0,4.7,63,0.00,,,0.00,WUHU21623XXSP,2013-08-24 16:40:00,
2013-08-24 09:45:00,68.5,54.6,29.92,South,180,6.0,6.0,61,0.00,,,0.00,WUHU21623XXSP,2013-08-24 16:45:00,
2013-08-24 09:50:00,68.2,54.3,29.92,SE,135,1.1,6.0,61,0.00,,,0.00,WUHU21623XXSP,2013-08-24 16:50:00,
2013-08-24 09:55:00,67.8,54.4,29.91,SE,135,0.0,1.1,62,0.00,,,0.00,WUHU21623XXSP,2013-08-24 16:55:00,
2013-08-24 10:00:00,67.6,54.2,29.91,ESE,112,4.9,4.9,62,0.00,,,0.00,WUHU21623XXSP,2013-08-24 17:00:00,
2013-08-24 10:05:00,67.6,54.2,29.91,ESE,112,0.0,4.9,62,0.00,,,0.00,WUHU21623XXSP,2013-08-24 17:05:00,
2013-08-24 10:10:00,67.6,54.2,29.92,ESE,112,0.0,0.0,62,0.00,,,0.00,WUHU21623XXSP,2013-08-24 17:10:00,
2013-08-24 10:15:00,67.3,53.9,29.92,ESE,112,0.0,0.0,62,0.00,,,0.00,WUHU21623XXSP,2013-08-24 17:15:00,
2013-08-24 10:20:00,66.9,53.5,29.92,SE,135,0.0,0.0,62,0.00,,,0.00,WUHU21623XXSP,2013-08-24 17:20:00,
2013-08-24 10:25:00,66.9,53.5,29.92,SE,135,0.0,0.0,62,0.00,,,0.00,WUHU21623XXSP,2013-08-24 17:25:00,
2013-08-24 10:30:00,66.9,54.0,29.92,SE,135,0.0,0.0,63,0.00,,,0.00,WUHU21623XXSP,2013-08-24 17:30:00,
2013-08-24 10:35:00,66.4,53.9,29.91,ESE,112,7.2,8.3,64,0.00,,,0.00,WUHU21623XXSP,2013-08-24 17:35:00,
2013-08-24 10:40:00,65.7,54.5,29.89,ESE,112,8.1,8.3,67,0.00,,,0.00,WUHU21623XXSP,2013-08-24 17:40:00,
2013-08-24 10:45:00,64.2,54.7,29.89,SE,135,5.1,8.1,71,0.00,,,0.00,WUHU21623XXSP,2013-08-24 17:45:00,
2013-08-24 10:50:00,65.1,55.9,29.89,SE,135,8.1,8.1,72,0.00,,,0.00,WUHU21623XXSP,2013-08-24 17:50:00,
2013-08-24 10:55:00,65.7,56.1,29.90,SE,135,0.0,8.1,71,0.00,,,0.00,WUHU21623XXSP,2013-08-24 17:55:00,
2013-08-24 11:00:00,66.6,56.6,29.91,SE,135,0.0,5.8,70,0.00,,,0.00,WUHU21623XXSP,2013-08-24 18:00:00,
2013-08-24 11:05:00,67.8,57.4,29.91,ENE,67,0.0,4.3,69,0.00,,,0.00,WUHU21623XXSP,2013-08-24 18:05:00,
2013-08-24 11:10:00,69.8,58.0,29.91,NNE,22,0.0,0.0,66,0.00,,,0.00,WUHU21623XXSP,2013-08-24 18:10:00,
2013-08-24 11:15:00,72.3,59.1,29.90,SE,135,3.4,3.4,63,0.00,,,0.00,WUHU21623XXSP,2013-08-24 18:15:00,
2013-08-24 11:20:00,73.4,58.8,29.90,ENE,67,0.0,3.8,60,0.00,,,0.00,WUHU21623XXSP,2013-08-24 18:20:00,
2013-08-24 11:25:00,73.9,58.3,29.91,ENE,67,0.0,3.8,58,0.00,,,0.00,WUHU21623XXSP,2013-08-24 18:25:00,
2013-08-24 11:30:00,75.0,58.3,29.91,SSE,157,0.0,2.5,56,0.00,,,0.00,WUHU21623XXSP,2013-08-24 18:30:00,
2013-08-24 11:35:00,75.0,57.8,29.91,SE,135,4.3,4.5,55,0.00,,,0.00,WUHU21623XXSP,2013-08-24 18:35:00,
2013-08-24 11:40:00,75.4,58.7,29.91,SE,135,0.0,4.5,56,0.00,,,0.00,WUHU21623XXSP,2013-08-24 18:40:00,
2013-08-24 11:45:00,77.2,59.3,29.90,NE,45,0.0,8.5,54,0.00,,,0.00,WUHU21623XXSP,2013-08-24 18:45:00,
2013-08-24 11:50:00,77.7,59.2,29.90,NNE,22,0.0,8.5,53,0.00,,,0.00,WUHU21623XXSP,2013-08-24 18:50:00,
2013-08-24 11:55:00,77.5,58.5,29.90,NNE,22,0.0,1.8,52,0.00,,,0.00,WUHU21623XXSP,2013-08-24 18:55:00,
2013-08-24 12:00:00,76.6,58.2,29.90,SE,135,0.0,1.3,53,0.00,,,0.00,WUHU21623XXSP,2013-08-24 19:00:00,
2013-08-24 12:05:00,76.8,58.4,29.89,SE,135,0.0,1.3,53,0.00,,,0.00,WUHU21623XXSP,2013-08-24 19:05:00,
2013-08-24 12:10:00,77.7,59.8,29.89,SE,135,0.0,0.0,54,0.00,,,0.00,WUHU21623XXSP,2013-08-24 19:10:00,
2013-08-24 12:15:00,79.0,59.9,29.89,WSW,247,0.0,0.0,52,0.00,,,0.00,WUHU21623XXSP,2013-08-24 19:15:00,
2013-08-24 12:20:00,79.2,58.9,29.89,WSW,247,0.0,5.8,50,0.00,,,0.00,WUHU21623XXSP,2013-08-24 19:20:00,
2013-08-24 12:25:00,79.2,59.5,29.89,WSW,247,0.0,5.8,51,0.00,,,0.00,WUHU21623XXSP,2013-08-24 19:25:00,
2013-08-24 12:30:00,79.7,60.0,29.89,NE,45,0.0,0.0,51,0.00,,,0.00,WUHU21623XXSP,2013-08-24 19:30:00,
2013-08-24 12:35:00,80.4,59.5,29.88,WSW,247,0.0,0.0,49,0.00,,,0.00,WUHU21623XXSP,2013-08-24 19:35:00,
2013-08-24 12:40:00,80.4,60.1,29.88,North,0,0.0,0.0,50,0.00,,,0.00,WUHU21623XXSP,2013-08-24 19:40:00,
2013-08-24 12:45:00,79.3,57.9,29.88,WSW,247,0.0,4.0,48,0.00,,,0.00,WUHU21623XXSP,2013-08-24 19:45:00,
2013-08-24 12:50:00,79.0,58.2,29.88,WSW,247,0.0,4.0,49,0.00,,,0.00,WUHU21623XXSP,2013-08-24 19:50:00,
2013-08-24 12:55:00,79.3,59.0,29.88,WSW,247,0.0,0.0,50,0.00,,,0.00,WUHU21623XXSP,2013-08-24 19:55:00,
2013-08-24 13:00:00,80.4,58.9,29.88,WSW,247,7.4,7.4,48,0.00,,,0.00,WUHU21623XXSP,2013-08-24 20:00:00,
2013-08-24 13:01:00,80.4,58.9,29.88,WSW,247,0.0,7.4,48,0.00,,,0.00,WUHU21623XXSP,2013-08-24 20:01:00,
2013-08-24 13:06:00,80.4,58.9,29.88,ESE,112,1.3,7.4,48,0.00,,,0.00,WUHU21623XXSP,2013-08-24 20:06:00,
2013-08-24 13:12:00,80.1,58.6,29.87,WSW,247,0.0,1.3,48,0.00,,,0.00,WUHU21623XXSP,2013-08-24 20:12:00,
2013-08-24 13:19:00,80.6,59.1,29.87,SW,225,0.0,0.0,48,0.00,,,0.00,WUHU21623XXSP,2013-08-24 20:19:00,
2013-08-24 13:33:00,81.7,59.5,29.87,SW,225,0.0,2.2,47,0.00,,,0.00,WUHU21623XXSP,2013-08-24 20:33:00,
2013-08-24 13:38:00,81.7,59.5,29.87,SSW,202,0.0,0.0,47,0.00,,,0.00,WUHU21623XXSP,2013-08-24 20:38:00,
2013-08-24 13:43:00,82.0,59.1,29.87,WSW,247,7.2,7.2,46,0.00,,,0.00,WUHU21623XXSP,2013-08-24 20:43:00,
2013-08-24 13:48:00,82.0,59.1,29.87,WSW,247,3.1,7.2,46,0.00,,,0.00,WUHU21623XXSP,2013-08-24 20:48:00,
2013-08-24 13:53:00,82.2,59.3,29.87,WSW,247,0.0,3.1,46,0.00,,,0.00,WUHU21623XXSP,2013-08-24 20:53:00,
2013-08-24 13:58:00,82.6,59.7,29.87,WSW,247,7.2,7.6,46,0.00,,,0.00,WUHU21623XXSP,2013-08-24 20:58:00,
2013-08-24 14:03:00,82.9,59.9,29.87,WSW,247,0.0,7.6,46,0.00,,,0.00,WUHU21623XXSP,2013-08-24 21:03:00,
2013-08-24 14:08:00,83.5,59.8,29.86,WSW,247,8.7,8.7,45,0.00,,,0.00,WUHU21623XXSP,2013-08-24 21:08:00,
2013-08-24 14:13:00,82.6,59.7,29.86,WSW,247,0.0,8.7,46,0.00,,,0.00,WUHU21623XXSP,2013-08-24 21:13:00,
2013-08-24 14:18:00,82.6,59.0,29.86,WSW,247,0.0,2.0,45,0.00,,,0.00,WUHU21623XXSP,2013-08-24 21:18:00,
2013-08-24 14:23:00,82.8,59.8,29.86,WSW,247,2.7,2.7,46,0.00,,,0.00,WUHU21623XXSP,2013-08-24 21:23:00,
2013-08-24 14:28:00,83.8,60.1,29.86,SE,135,0.0,2.7,45,0.00,,,0.00,WUHU21623XXSP,2013-08-24 21:28:00,
2013-08-24 14:33:00,83.5,59.8,29.86,ENE,67,0.0,0.0,45,0.00,,,0.00,WUHU21623XXSP,2013-08-24 21:33:00,
2013-08-24 14:38:00,83.1,58.8,29.86,South,180,6.0,9.2,44,0.00,,,0.00,WUHU21623XXSP,2013-08-24 21:38:00,
2013-08-24 14:43:00,82.8,59.2,29.86,SW,225,4.0,9.2,45,0.00,,,0.00,WUHU21623XXSP,2013-08-24 21:43:00,
2013-08-24 14:48:00,83.5,59.8,29.86,West,270,0.0,5.8,45,0.00,,,0.00,WUHU21623XXSP,2013-08-24 21:48:00,
2013-08-24 14:53:00,84.4,60.0,29.85,WSW,247,0.0,1.8,44,0.00,,,0.00,WUHU21623XXSP,2013-08-24 21:53:00,
2013-08-24 14:58:00,84.4,60.0,29.85,North,0,7.4,7.4,44,0.00,,,0.00,WUHU21623XXSP,2013-08-24 21:58:00,
2013-08-24 15:03:00,83.7,59.4,29.85,North,0,0.0,7.4,44,0.00,,,0.00,WUHU21623XXSP,2013-08-24 22:03:00,
2013-08-24 15:08:00,83.5,59.2,29.85,NNW,337,0.0,7.6,44,0.00,,,0.00,WUHU21623XXSP,2013-08-24 22:08:00,
2013-08-24 15:13:00,82.9,58.6,29.84,NNE,22,0.0,7.6,44,0.00,,,0.00,WUHU21623XXSP,2013-08-24 22:13:00,
2013-08-24 15:18:00,82.2,58.6,29.84,WSW,247,0.0,6.9,45,0.00,,,0.00,WUHU21623XXSP,2013-08-24 22:18:00,
2013-08-24 15:23:00,82.4,58.8,29.84,NE,45,0.0,2.0,45,0.00,,,0.00,WUHU21623XXSP,2013-08-24 22:23:00,
2013-08-24 15:28:00,82.2,58.6,29.84,NE,45,0.0,4.0,45,0.00,,,0.00,WUHU21623XXSP,2013-08-24 22:28:00,
2013-08-24 15:33:00,82.2,58.6,29.84,WSW,247,5.4,5.4,45,0.00,,,0.00,WUHU21623XXSP,2013-08-24 22:33:00,
2013-08-24 15:38:00,82.6,59.0,29.84,WSW,247,0.0,5.4,45,0.00,,,0.00,WUHU21623XXSP,2013-08-24 22:38:00,
2013-08-24 15:43:00,83.1,58.8,29.84,SSW,202,0.0,2.5,44,0.00,,,0.00,WUHU21623XXSP,2013-08-24 22:43:00,
2013-08-24 15:48:00,84.0,59.6,29.84,West,270,7.8,7.8,44,0.00,,,0.00,WUHU21623XXSP,2013-08-24 22:48:00,
2013-08-24 15:53:00,84.7,59.6,29.84,West,270,2.2,7.8,43,0.00,,,0.00,WUHU21623XXSP,2013-08-24 22:53:00,
2013-08-24 15:58:00,85.8,60.6,29.83,WSW,247,0.0,5.1,43,0.00,,,0.00,WUHU21623XXSP,2013-08-24 22:58:00,
2013-08-24 16:03:00,85.8,59.2,29.83,NW,315,0.0,0.0,41,0.00,,,0.00,WUHU21623XXSP,2013-08-24 23:03:00,
2013-08-24 16:08:00,85.8,60.6,29.83,WSW,247,0.0,0.0,43,0.00,,,0.00,WUHU21623XXSP,2013-08-24 23:08:00,
2013-08-24 16:13:00,86.9,60.2,29.83,WSW,247,12.5,12.5,41,0.00,,,0.00,WUHU21623XXSP,2013-08-24 23:13:00,
2013-08-24 16:18:00,87.3,60.6,29.83,West,270,0.0,12.5,41,0.00,,,0.00,WUHU21623XXSP,2013-08-24 23:18:00,
2013-08-24 16:23:00,87.1,60.4,29.83,West,270,0.0,6.0,41,0.00,,,0.00,WUHU21623XXSP,2013-08-24 23:23:00,
2013-08-24 16:28:00,86.2,59.6,29.83,West,270,0.0,0.0,41,0.00,,,0.00,WUHU21623XXSP,2013-08-24 23:28:00,
2013-08-24 16:33:00,85.6,59.0,29.83,WSW,247,0.0,0.0,41,0.00,,,0.00,WUHU21623XXSP,2013-08-24 23:33:00,
2013-08-24 16:38:00,85.8,59.2,29.83,WSW,247,8.5,8.5,41,0.00,,,0.00,WUHU21623XXSP,2013-08-24 23:38:00,
2013-08-24 16:43:00,86.2,59.6,29.83,WSW,247,7.4,8.5,41,0.00,,,0.00,WUHU21623XXSP,2013-08-24 23:43:00,
2013-08-24 16:48:00,86.2,59.6,29.83,WSW,247,0.0,8.5,41,0.00,,,0.00,WUHU21623XXSP,2013-08-24 23:48:00,
2013-08-24 16:53:00,85.8,59.2,29.83,WSW,247,0.0,3.1,41,0.00,,,0.00,WUHU21623XXSP,2013-08-24 23:53:00,
2013-08-24 16:58:00,85.6,59.0,29.83,WSW,247,3.1,3.1,41,0.00,,,0.00,WUHU21623XXSP,2013-08-24 23:58:00,
2013-08-24 17:03:00,85.6,59.0,29.83,WSW,247,8.7,8.7,41,0.00,,,0.00,WUHU21623XXSP,2013-08-25 00:03:00,
2013-08-24 17:08:00,85.5,58.9,29.83,WSW,247,0.0,8.7,41,0.00,,,0.00,WUHU21623XXSP,2013-08-25 00:08:00,
2013-08-24 17:13:00,85.3,58.8,29.82,WSW,247,0.0,0.0,41,0.00,,,0.00,WUHU21623XXSP,2013-08-25 00:13:00,
2013-08-24 17:18:00,84.9,58.4,29.82,WSW,247,0.0,6.7,41,0.00,,,0.00,WUHU21623XXSP,2013-08-25 00:18:00,
2013-08-24 17:23:00,84.4,58.0,29.82,WSW,247,2.9,6.7,41,0.00,,,0.00,WUHU21623XXSP,2013-08-25 00:23:00,
2013-08-24 17:28:00,84.4,58.0,29.82,WSW,247,0.0,2.9,41,0.00,,,0.00,WUHU21623XXSP,2013-08-25 00:28:00,
2013-08-24 17:33:00,84.0,58.3,29.82,WSW,247,0.0,2.9,42,0.00,,,0.00,WUHU21623XXSP,2013-08-25 00:33:00,
2013-08-24 17:38:00,84.4,58.6,29.82,WSW,247,0.0,0.0,42,0.00,,,0.00,WUHU21623XXSP,2013-08-25 00:38:00,
2013-08-24 17:43:00,84.6,59.5,29.82,WSW,247,4.9,6.9,43,0.00,,,0.00,WUHU21623XXSP,2013-08-25 00:43:00,
2013-08-24 17:48:00,84.7,59.6,29.82,WSW,247,0.0,6.9,43,0.00,,,0.00,WUHU21623XXSP,2013-08-25 00:48:00,
2013-08-24 17:53:00,84.7,58.2,29.82,WSW,247,0.0,4.9,41,0.00,,,0.00,WUHU21623XXSP,2013-08-25 00:53:00,
2013-08-24 17:58:00,84.9,58.4,29.82,WSW,247,0.0,0.0,41,0.00,,,0.00,WUHU21623XXSP,2013-08-25 00:58:00,
2013-08-24 18:03:00,85.3,58.8,29.81,WSW,247,0.0,0.0,41,0.00,,,0.00,WUHU21623XXSP,2013-08-25 01:03:00,
2013-08-24 18:08:00,86.2,59.6,29.81,WSW,247,2.5,2.5,41,0.00,,,0.00,WUHU21623XXSP,2013-08-25 01:08:00,
2013-08-24 18:12:00,86.7,60.0,29.81,WSW,247,0.7,2.5,41,0.00,,,0.00,WUHU21623XXSP,2013-08-25 01:12:00,
2013-08-24 18:17:00,86.9,60.2,29.81,WSW,247,0.0,2.5,41,0.00,,,0.00,WUHU21623XXSP,2013-08-25 01:17:00,
2013-08-24 18:22:00,86.9,60.2,29.81,WSW,247,0.0,0.0,41,0.00,,,0.00,WUHU21623XXSP,2013-08-25 01:22:00,
2013-08-24 18:27:00,87.1,60.4,29.81,WSW,247,0.0,0.0,41,0.00,,,0.00,WUHU21623XXSP,2013-08-25 01:27:00,
2013-08-24 18:32:00,86.9,60.2,29.81,WSW,247,0.0,0.0,41,0.00,,,0.00,WUHU21623XXSP,2013-08-25 01:32:00,
2013-08-24 18:37:00,86.9,60.2,29.81,WSW,247,0.0,0.0,41,0.00,,,0.00,WUHU21623XXSP,2013-08-25 01:37:00,
2013-08-24 18:43:00,86.7,59.3,29.81,WSW,247,0.0,0.0,40,0.00,,,0.00,WUHU21623XXSP,2013-08-25 01:43:00,
2013-08-24 18:48:00,86.5,59.8,29.81,WSW,247,0.0,0.0,41,0.00,,,0.00,WUHU21623XXSP,2013-08-25 01:48:00,
2013-08-24 18:53:00,85.6,59.0,29.81,WSW,247,0.0,0.0,41,0.00,,,0.00,WUHU21623XXSP,2013-08-25 01:53:00,
2013-08-24 18:58:00,84.6,58.1,29.81,WSW,247,0.0,0.0,41,0.00,,,0.00,WUHU21623XXSP,2013-08-25 01:58:00,
2013-08-24 19:03:00,83.8,57.4,29.81,WSW,247,0.0,0.0,41,0.00,,,0.00,WUHU21623XXSP,2013-08-25 02:03:00,
2013-08-24 19:08:00,83.5,57.8,29.81,West,270,0.0,0.0,42,0.00,,,0.00,WUHU21623XXSP,2013-08-25 02:08:00,
2013-08-24 19:13:00,83.1,57.5,29.82,West,270,0.0,0.0,42,0.00,,,0.00,WUHU21623XXSP,2013-08-25 02:13:00,
2013-08-24 19:18:00,82.6,57.0,29.82,West,270,0.0,0.0,42,0.00,,,0.00,WUHU21623XXSP,2013-08-25 02:18:00,
2013-08-24 19:23:00,81.1,56.3,29.81,West,270,0.0,0.0,43,0.00,,,0.00,WUHU21623XXSP,2013-08-25 02:23:00,
2013-08-24 19:28:00,79.3,54.7,29.82,West,270,0.0,0.0,43,0.00,,,0.00,WUHU21623XXSP,2013-08-25 02:28:00,
2013-08-24 19:33:00,77.5,53.7,29.82,West,270,0.0,0.0,44,0.00,,,0.00,WUHU21623XXSP,2013-08-25 02:33:00,
2013-08-24 19:38:00,75.6,53.3,29.82,West,270,0.0,0.0,46,0.00,,,0.00,WUHU21623XXSP,2013-08-25 02:38:00,
2013-08-24 19:43:00,74.5,52.2,29.83,West,270,0.0,0.0,46,0.00,,,0.00,WUHU21623XXSP,2013-08-25 02:43:00,
2013-08-24 19:48:00,73.6,52.6,29.83,West,270,0.0,0.0,48,0.00,,,0.00,WUHU21623XXSP,2013-08-25 02:48:00,
2013-08-24 19:53:00,72.3,52.0,29.83,West,270,0.0,0.0,49,0.00,,,0.00,WUHU21623XXSP,2013-08-25 02:53:00,
2013-08-24 19:58:00,71.4,51.7,29.83,West,270,0.0,0.0,50,0.00,,,0.00,WUHU21623XXSP,2013-08-25 02:58:00,
2013-08-24 20:03:00,70.9,51.3,29.83,West,270,0.0,0.0,50,0.00,,,0.00,WUHU21623XXSP,2013-08-25 03:03:00,
2013-08-24 20:08:00,70.0,50.4,29.83,West,270,0.0,0.0,50,0.00,,,0.00,WUHU21623XXSP,2013-08-25 03:08:00,
2013-08-24 20:13:00,69.4,50.4,29.83,West,270,0.0,0.0,51,0.00,,,0.00,WUHU21623XXSP,2013-08-25 03:13:00,
2013-08-24 20:18:00,68.7,50.3,29.83,West,270,0.0,0.0,52,0.00,,,0.00,WUHU21623XXSP,2013-08-25 03:18:00,
2013-08-24 20:23:00,68.2,49.9,29.84,West,270,0.0,0.0,52,0.00,,,0.00,WUHU21623XXSP,2013-08-25 03:23:00,
2013-08-24 20:28:00,67.8,49.5,29.84,West,270,0.0,0.0,52,0.00,,,0.00,WUHU21623XXSP,2013-08-25 03:28:00,
2013-08-24 20:33:00,67.6,49.8,29.84,West,270,0.0,0.0,53,0.00,,,0.00,WUHU21623XXSP,2013-08-25 03:33:00,
2013-08-24 20:38:00,67.6,49.8,29.85,West,270,0.0,0.0,53,0.00,,,0.00,WUHU21623XXSP,2013-08-25 03:38:00,
2013-08-24 20:43:00,67.6,49.8,29.85,West,270,0.0,0.0,53,0.00,,,0.00,WUHU21623XXSP,2013-08-25 03:43:00,
2013-08-24 20:48:00,67.6,49.8,29.85,West,270,0.0,0.0,53,0.00,,,0.00,WUHU21623XXSP,2013-08-25 03:48:00,
2013-08-24 20:53:00,67.3,49.6,29.85,West,270,0.0,0.0,53,0.00,,,0.00,WUHU21623XXSP,2013-08-25 03:53:00,
2013-08-24 20:58:00,66.9,49.2,29.85,West,270,0.0,0.0,53,0.00,,,0.00,WUHU21623XXSP,2013-08-25 03:58:00,
2013-08-24 21:01:00,66.9,49.2,29.85,West,270,0.0,0.0,53,0.00,,,0.00,WUHU21623XXSP,2013-08-25 04:01:00,
2013-08-24 21:02:00,66.9,49.2,29.85,WSW,247,0.0,0.0,53,0.00,,,0.00,WUHU21623XXSP,2013-08-25 04:02:00,
2013-08-24 21:07:00,66.7,49.0,29.86,WSW,247,2.5,2.5,53,0.00,,,0.00,WUHU21623XXSP,2013-08-25 04:07:00,
2013-08-24 21:12:00,66.7,49.0,29.86,WSW,247,1.1,2.5,53,0.00,,,0.00,WUHU21623XXSP,2013-08-25 04:12:00,
2013-08-24 21:17:00,66.6,48.9,29.86,WSW,247,0.0,2.5,53,0.00,,,0.00,WUHU21623XXSP,2013-08-25 04:17:00,
2013-08-24 21:22:00,66.4,48.7,29.86,WSW,247,2.0,2.0,53,0.00,,,0.00,WUHU21623XXSP,2013-08-25 04:22:00,
2013-08-24 21:27:00,66.6,48.9,29.86,WSW,247,2.0,2.0,53,0.00,,,0.00,WUHU21623XXSP,2013-08-25 04:27:00,
2013-08-24 21:32:00,66.7,48.5,29.86,WSW,247,0.0,3.4,52,0.00,,,0.00,WUHU21623XXSP,2013-08-25 04:32:00,
2013-08-24 21:37:00,66.7,48.5,29.86,WSW,247,7.6,7.6,52,0.00,,,0.00,WUHU21623XXSP,2013-08-25 04:37:00,
2013-08-24 21:42:00,66.7,48.5,29.86,WSW,247,2.5,7.6,52,0.00,,,0.00,WUHU21623XXSP,2013-08-25 04:42:00,
2013-08-24 21:47:00,66.6,48.4,29.86,West,270,1.3,2.5,52,0.00,,,0.00,WUHU21623XXSP,2013-08-25 04:47:00,
2013-08-24 21:52:00,66.4,47.7,29.86,WSW,247,0.0,1.3,51,0.00,,,0.00,WUHU21623XXSP,2013-08-25 04:52:00,
2013-08-24 21:57:00,66.0,47.3,29.87,WSW,247,4.9,4.9,51,0.00,,,0.00,WUHU21623XXSP,2013-08-25 04:57:00,
2013-08-24 22:02:00,66.0,47.8,29.86,West,270,0.9,4.9,52,0.00,,,0.00,WUHU21623XXSP,2013-08-25 05:02:00,
2013-08-24 22:07:00,66.0,47.8,29.86,West,270,0.9,4.9,52,0.00,,,0.00,WUHU21623XXSP,2013-08-25 05:07:00,
2013-08-24 22:12:00,66.4,48.7,29.86,West,270,0.9,0.9,53,0.00,,,0.00,WUHU21623XXSP,2013-08-25 05:12:00,
2013-08-24 22:17:00,66.6,48.9,29.87,West,270,4.5,4.5,53,0.00,,,0.00,WUHU21623XXSP,2013-08-25 05:17:00,
2013-08-24 22:22:00,66.9,49.2,29.87,West,270,3.1,4.5,53,0.00,,,0.00,WUHU21623XXSP,2013-08-25 05:22:00,
2013-08-24 22:27:00,67.3,49.6,29.87,WSW,247,5.8,6.7,53,0.00,,,0.00,WUHU21623XXSP,2013-08-25 05:27:00,
2013-08-24 22:32:00,67.6,49.8,29.87,West,270,4.0,6.7,53,0.00,,,0.00,WUHU21623XXSP,2013-08-25 05:32:00,
2013-08-24 22:37:00,67.6,49.8,29.87,West,270,0.0,4.0,53,0.00,,,0.00,WUHU21623XXSP,2013-08-25 05:37:00,
2013-08-24 22:42:00,67.5,49.8,29.87,West,270,0.0,4.0,53,0.00,,,0.00,WUHU21623XXSP,2013-08-25 05:42:00,
2013-08-24 22:47:00,67.1,49.4,29.87,WSW,247,2.2,2.2,53,0.00,,,0.00,WUHU21623XXSP,2013-08-25 05:47:00,
2013-08-24 22:52:00,66.7,49.5,29.87,WSW,247,0.0,2.2,54,0.00,,,0.00,WUHU21623XXSP,2013-08-25 05:52:00,
2013-08-24 22:57:00,66.7,49.5,29.88,WSW,247,0.0,0.0,54,0.00,,,0.00,WUHU21623XXSP,2013-08-25 05:57:00,
2013-08-24 23:02:00,66.9,50.2,29.88,SSW,202,0.0,0.0,55,0.00,,,0.00,WUHU21623XXSP,2013-08-25 06:02:00,
2013-08-24 23:07:00,66.7,50.0,29.89,South,180,5.4,5.4,55,0.00,,,0.00,WUHU21623XXSP,2013-08-25 06:07:00,
2013-08-24 23:12:00,66.0,49.4,29.89,South,180,5.6,5.6,55,0.00,,,0.00,WUHU21623XXSP,2013-08-25 06:12:00,
2013-08-24 23:17:00,65.5,48.9,29.90,SSW,202,4.5,5.6,55,0.00,,,0.00,WUHU21623XXSP,2013-08-25 06:17:00,
2013-08-24 23:22:00,65.1,48.5,29.90,SSW,202,7.4,7.4,55,0.00,,,0.00,WUHU21623XXSP,2013-08-25 06:22:00,
2013-08-24 23:27:00,64.8,48.3,29.90,SW,225,0.0,7.4,55,0.00,,,0.00,WUHU21623XXSP,2013-08-25 06:27:00,
2013-08-24 23:32:00,64.8,48.8,29.89,SW,225,0.0,0.0,56,0.00,,,0.00,WUHU21623XXSP,2013-08-25 06:32:00,
2013-08-24 23:37:00,64.4,48.4,29.89,SW,225,0.0,0.0,56,0.00,,,0.00,WUHU21623XXSP,2013-08-25 06:37:00,
2013-08-24 23:42:00,64.2,48.2,29.89,SW,225,0.0,0.0,56,0.00,,,0.00,WUHU21623XXSP,2013-08-25 06:42:00,
2013-08-24 23:47:00,63.7,47.7,29.89,SW,225,0.0,0.0,56,0.00,,,0.00,WUHU21623XXSP,2013-08-25 06:47:00,
2013-08-24 23:52:00,63.0,47.1,29.89,SW,225,0.0,0.0,56,0.00,,,0.00,WUHU21623XXSP,2013-08-25 06:52:00,
2013-08-24 23:57:00,62.2,47.3,29.89,SW,225,0.0,0.0,58,0.00,,,0.00,WUHU21623XXSP,2013-08-25 06:57:00,